Terminal Aerodrome Forecast
Issued by NWS

Home | Current Version | Previous Version | Text Only | Print | Product List | Glossary On
Versions: 1 2 3 4 5 6 7 8 9 10 11 12 13 14 15
000
FTUS46 KMTR 272336
TAFOAK
TAF
KOAK 272336Z 2800/2906 29016G21KT P6SM SKC
     FM280300 29008KT P6SM SKC
     FM280900 VRB04KT P6SM FEW010
     FM282000 29007KT P6SM SKC
     FM282200 29012KT P6SM SKC
     FM290300 29008KT P6SM SKC=

USA.gov is the U.S. government's official web portal to all federal, state and local government web resources and services.